Time;durP1;ratioP1;P1;durP2;ratioP2;P2;SDS_P1;SDS_P2;PMS_P1;PMS_P2;Temp;Humidity;BMP_temperature;BMP_pressure;BME280_temperature;BME280_humidity;BME280_pressure;Samples;Min_cycle;Max_cycle;Signal;HPM_P1;HPM_P2
2024/03/07 00:36:27;;;;;;;22.23;13.37;;;3.70;87.10;;;;;;5981080;23;20415;-86
2024/03/07 01:01:55;;;;;;;21.97;13.90;;;3.40;88.50;;;;;;5947333;23;20235;-89
2024/03/07 01:27:13;;;;;;;23.23;14.20;;;3.00;90.60;;;;;;5970370;23;20582;-87
2024/03/07 02:38:17;;;;;;;22.57;14.80;;;2.00;96.50;;;;;;5575146;25;20208;-86
2024/03/07 02:58:34;;;;;;;25.53;15.17;;;1.30;99.40;;;;;;5636504;24;20452;-86
2024/03/07 03:28:18;;;;;;;29.73;16.23;;;0.50;99.90;;;;;;5698310;24;20670;-88
2024/03/07 04:19:20;;;;;;;28.30;17.53;;;-0.50;99.90;;;;;;5684155;24;20437;-85
2024/03/07 04:49:35;;;;;;;25.20;16.73;;;-0.70;99.90;;;;;;5732992;24;21154;-88
2024/03/07 05:10:12;;;;;;;28.10;15.70;;;-1.10;99.90;;;;;;5748945;24;20698;-88
2024/03/07 05:30:23;;;;;;;27.43;16.47;;;-1.30;99.90;;;;;;5897621;23;20492;-87
2024/03/07 05:50:51;;;;;;;30.10;15.93;;;-1.10;99.90;;;;;;5986578;23;20256;-89
2024/03/07 06:11:19;;;;;;;27.53;14.57;;;-0.70;99.90;;;;;;5884245;24;20199;-88
2024/03/07 06:15:39;;;;;;;13.77;7.83;;;-0.80;99.90;;;;;;5678353;24;20492;-86
2024/03/07 06:41:34;;;;;;;23.30;14.17;;;0.10;99.90;;;;;;5680479;24;20293;-81
2024/03/07 07:11:55;;;;;;;19.73;11.80;;;0.90;99.90;;;;;;5616789;24;20751;-83
2024/03/07 07:32:22;;;;;;;15.70;10.00;;;1.10;97.20;;;;;;5682737;24;20446;-82
2024/03/07 07:52:44;;;;;;;16.07;10.33;;;1.80;92.40;;;;;;5740204;24;20548;-82
2024/03/07 08:22:28;;;;;;;13.87;8.50;;;2.10;89.20;;;;;;5829035;23;20945;-85
2024/03/07 08:38:26;;;;;;;9.47;5.87;;;2.50;87.00;;;;;;5746300;24;20649;-86
2024/03/07 08:42:45;;;;;;;15.40;9.00;;;2.50;85.20;;;;;;5666873;24;20772;-84
2024/03/07 09:03:30;;;;;;;9.90;6.93;;;3.30;78.90;;;;;;5742153;24;20191;-83
2024/03/07 09:18:46;;;;;;;7.40;3.77;;;3.40;75.90;;;;;;5567675;24;20688;-83
2024/03/07 10:09:04;;;;;;;7.10;4.93;;;4.00;63.60;;;;;;5544466;24;20958;-87
2024/03/07 10:39:33;;;;;;;6.87;4.40;;;4.40;60.10;;;;;;5584074;24;20458;-84
2024/03/07 10:55:21;;;;;;;7.23;4.57;;;4.60;58.50;;;;;;5618161;24;20563;-86
2024/03/07 11:20:38;;;;;;;8.03;5.10;;;5.00;56.50;;;;;;5955756;23;20163;-84
2024/03/07 11:45:44;;;;;;;9.33;6.20;;;5.20;58.50;;;;;;5982527;23;20692;-84
2024/03/07 12:16:16;;;;;;;8.43;6.03;;;5.50;56.50;;;;;;5953807;23;20315;-86
2024/03/07 12:41:36;;;;;;;9.63;5.90;;;5.70;55.70;;;;;;5682321;24;20698;-85
2024/03/07 13:32:28;;;;;;;9.00;5.93;;;6.10;57.20;;;;;;5994061;23;20242;-85
2024/03/07 14:43:37;;;;;;;9.63;6.30;;;6.00;55.00;;;;;;5847400;24;20266;-85
2024/03/07 15:03:29;;;;;;;8.73;6.37;;;5.90;57.50;;;;;;5532144;24;20682;-85
2024/03/07 15:29:02;;;;;;;8.40;5.60;;;6.00;56.50;;;;;;5721101;24;20216;-85
2024/03/07 16:04:07;;;;;;;8.37;6.63;;;5.40;58.20;;;;;;5719705;24;20546;-86
2024/03/07 16:29:44;;;;;;;18.07;8.60;;;5.20;62.10;;;;;;5777922;24;20787;-87
2024/03/07 16:55:21;;;;;;;14.23;8.97;;;3.70;79.60;;;;;;5597003;25;20661;-88
2024/03/07 18:11:30;;;;;;;18.10;9.10;;;0.80;97.30;;;;;;5640281;24;20186;-88
2024/03/07 18:36:38;;;;;;;20.97;10.67;;;0.80;99.90;;;;;;5587328;24;20423;-88
2024/03/07 19:02:17;;;;;;;25.13;14.80;;;0.50;99.90;;;;;;5709406;24;20568;-87
2024/03/07 20:32:51;;;;;;;32.37;18.00;;;-0.80;99.90;;;;;;5756321;24;20291;-90
2024/03/07 20:53:29;;;;;;;31.10;17.67;;;-0.80;99.90;;;;;;5695833;24;20532;-89
2024/03/07 21:13:55;;;;;;;39.40;22.63;;;-1.40;99.90;;;;;;5751858;24;20205;-87
2024/03/07 21:44:16;;;;;;;54.50;32.53;;;-1.50;99.90;;;;;;5926376;23;20772;-86
2024/03/07 22:19:53;;;;;;;66.30;36.07;;;-1.80;99.90;;;;;;5961423;23;20209;-86
2024/03/07 22:50:27;;;;;;;70.30;37.20;;;-2.40;99.90;;;;;;5947355;23;20235;-88
2024/03/07 23:15:47;;;;;;;58.90;32.43;;;-2.20;99.90;;;;;;5825121;24;20396;-88
2024/03/07 23:40:51;;;;;;;58.10;31.57;;;-2.10;99.90;;;;;;5761892;24;20485;-87
